createdAt,value
2022-12-25T00:06:25.281Z,85.51
2022-12-25T00:28:11.084Z,85.46
2022-12-25T00:49:56.913Z,85.15
2022-12-25T01:11:42.687Z,84.76
2022-12-25T01:33:28.323Z,85.61
2022-12-25T01:55:14.669Z,86.52
2022-12-25T02:17:08.805Z,86.30
2022-12-25T02:39:18.330Z,85.71
2022-12-25T03:01:26.272Z,85.36
2022-12-25T03:23:31.306Z,86.00
2022-12-25T03:45:45.265Z,86.11
2022-12-25T04:07:48.715Z,86.23
2022-12-25T04:29:52.359Z,86.06
2022-12-25T04:51:39.379Z,86.71
2022-12-25T05:13:25.303Z,86.44
2022-12-25T05:35:12.078Z,86.34
2022-12-25T05:56:58.192Z,86.11
2022-12-25T06:18:46.091Z,85.13
2022-12-25T06:40:31.803Z,86.07
2022-12-25T07:02:20.820Z,86.82
2022-12-25T07:24:07.450Z,87.10
2022-12-25T07:45:57.859Z,87.08
2022-12-25T08:07:43.791Z,86.82
2022-12-25T08:29:29.669Z,86.56
2022-12-25T08:51:17.540Z,85.63
2022-12-25T09:13:03.215Z,85.67
2022-12-25T09:34:48.909Z,85.01
2022-12-25T09:56:36.248Z,83.71
2022-12-25T10:18:49.191Z,68.22
2022-12-25T10:40:44.248Z,61.57
2022-12-25T11:02:35.618Z,67.44
2022-12-25T11:43:49.651Z,72.12
2022-12-25T12:05:41.240Z,73.98
2022-12-25T12:27:35.537Z,74.17
2022-12-25T12:49:25.707Z,73.99
2022-12-25T13:11:19.576Z,74.99
2022-12-25T13:33:06.186Z,74.85
2022-12-25T13:55:01.553Z,76.26
2022-12-25T14:16:49.802Z,76.94
2022-12-25T14:38:36.899Z,78.71
2022-12-25T15:00:27.603Z,79.29
2022-12-25T15:22:15.179Z,79.51
2022-12-25T15:44:00.952Z,79.73
2022-12-25T16:05:46.764Z,79.37
2022-12-25T16:27:32.498Z,79.55
2022-12-25T16:49:18.408Z,79.85
2022-12-25T17:11:06.744Z,79.96
2022-12-25T17:32:52.679Z,79.97
2022-12-25T17:54:39.272Z,80.29
2022-12-25T18:16:27.177Z,80.40
2022-12-25T18:38:13.281Z,80.69
2022-12-25T18:59:58.979Z,81.24
2022-12-25T19:21:45.597Z,81.43
2022-12-25T19:43:33.358Z,81.80
2022-12-25T20:05:19.303Z,81.25
2022-12-25T20:43:45.096Z,81.68
2022-12-25T21:05:31.494Z,81.48
2022-12-25T21:27:17.342Z,82.43
2022-12-25T21:49:03.100Z,82.77
2022-12-25T22:10:48.823Z,83.07
2022-12-25T22:44:16.480Z,83.01
2022-12-25T23:05:58.353Z,83.84
2022-12-25T23:27:44.751Z,84.17
2022-12-25T23:49:31.028Z,84.45
